Time;durP1;ratioP1;P1;durP2;ratioP2;P2;SDS_P1;SDS_P2;PMS_P1;PMS_P2;Temp;Humidity;BMP_temperature;BMP_pressure;BME280_temperature;BME280_humidity;BME280_pressure;Samples;Min_cycle;Max_cycle;Signal;HPM_P1;HPM_P2
2021/10/04 00:00:16;;;;;;;8.23;1.98;;;;;;;13.91;100.00;95695.03;1022724;29;20027;-67
2021/10/04 00:00:46;;;;;;;4.60;2.65;;;;;;;13.91;100.00;95697.69;1022302;29;20050;-66
2021/10/04 00:01:17;;;;;;;7.13;2.50;;;;;;;13.86;100.00;95695.13;1022606;28;20055;-67
2021/10/04 00:01:47;;;;;;;3.78;2.10;;;;;;;13.82;100.00;95696.78;1026140;28;20027;-66
2021/10/04 00:02:18;;;;;;;2.88;2.30;;;;;;;13.85;100.00;95696.97;1024256;28;20023;-66
2021/10/04 00:02:48;;;;;;;2.63;2.20;;;;;;;13.84;100.00;95705.16;1022629;29;20039;-66
2021/10/04 00:03:19;;;;;;;5.38;2.40;;;;;;;13.84;100.00;95700.66;1022750;28;20046;-65
2021/10/04 00:03:49;;;;;;;5.32;2.45;;;;;;;13.81;100.00;95700.47;1028267;28;20027;-66
2021/10/04 00:04:19;;;;;;;2.63;2.28;;;;;;;13.79;100.00;95705.25;1030581;28;20027;-68
2021/10/04 00:04:50;;;;;;;3.28;2.20;;;;;;;13.80;100.00;95704.94;1026677;28;20121;-68
2021/10/04 00:05:20;;;;;;;4.88;2.00;;;;;;;13.78;100.00;95707.09;1023122;28;20039;-69
2021/10/04 00:05:51;;;;;;;2.33;2.13;;;;;;;13.79;100.00;95710.53;1026153;28;20059;-69
2021/10/04 00:06:21;;;;;;;2.05;1.85;;;;;;;13.74;100.00;95705.28;1030729;28;20030;-65
2021/10/04 00:06:52;;;;;;;2.30;1.92;;;;;;;13.70;100.00;95699.03;1026508;28;20027;-66
2021/10/04 00:07:22;;;;;;;3.30;2.05;;;;;;;13.71;100.00;95711.91;1020301;29;20698;-66
2021/10/04 00:07:52;;;;;;;2.58;2.38;;;;;;;13.69;100.00;95703.50;1018493;29;20050;-67
2021/10/04 00:08:23;;;;;;;3.70;2.17;;;;;;;13.72;100.00;95713.50;1018807;29;20031;-66
2021/10/04 00:08:54;;;;;;;2.42;2.05;;;;;;;13.71;100.00;95711.91;1026826;28;20030;-65
2021/10/04 00:09:24;;;;;;;3.35;2.00;;;;;;;13.63;100.00;95694.09;1029683;28;20038;-66
2021/10/04 00:09:55;;;;;;;4.38;2.80;;;;;;;13.67;100.00;95713.56;1024637;28;20023;-67
2021/10/04 00:10:26;;;;;;;3.30;2.25;;;;;;;13.67;100.00;95716.97;1033697;28;20026;-66
2021/10/04 00:10:56;;;;;;;2.72;2.13;;;;;;;13.60;100.00;95711.25;1034383;28;20018;-66
2021/10/04 00:11:27;;;;;;;2.50;2.05;;;;;;;13.64;100.00;95716.75;1029645;28;20030;-67
2021/10/04 00:11:57;;;;;;;2.38;1.98;;;;;;;13.67;100.00;95726.72;1022485;28;20029;-67
2021/10/04 00:12:28;;;;;;;4.90;2.53;;;;;;;13.66;100.00;95720.69;1022395;29;20023;-67
2021/10/04 00:12:58;;;;;;;2.88;2.25;;;;;;;13.68;100.00;95723.03;1016933;29;20028;-67
2021/10/04 00:13:29;;;;;;;4.75;2.05;;;;;;;13.71;100.00;95724.31;1018619;28;20094;-67
2021/10/04 00:13:59;;;;;;;3.47;2.38;;;;;;;13.68;100.00;95723.84;1026383;28;20027;-64
2021/10/04 00:14:30;;;;;;;2.42;1.98;;;;;;;13.63;100.00;95717.81;1021740;28;20500;-66
2021/10/04 00:15:02;;;;;;;2.80;2.42;;;;;;;13.70;100.00;95730.66;1026669;28;20191;-68
2021/10/04 00:15:32;;;;;;;3.13;2.00;;;;;;;13.68;100.00;95728.28;1030124;28;20272;-69
2021/10/04 00:16:03;;;;;;;2.28;2.08;;;;;;;13.68;100.00;95733.56;1025689;28;20285;-69
2021/10/04 00:16:33;;;;;;;2.33;2.13;;;;;;;13.70;100.00;95720.91;1022754;28;20078;-68
2021/10/04 00:17:04;;;;;;;2.33;2.10;;;;;;;13.71;100.00;95727.72;1024745;28;20078;-69
2021/10/04 00:17:35;;;;;;;4.10;1.92;;;;;;;13.71;100.00;95726.97;1030731;28;20014;-67
2021/10/04 00:18:06;;;;;;;2.30;2.10;;;;;;;13.72;100.00;95729.31;1034937;28;20030;-69
2021/10/04 00:18:36;;;;;;;2.42;2.10;;;;;;;13.73;100.00;95725.63;1039517;28;20025;-69
2021/10/04 00:19:06;;;;;;;2.30;2.10;;;;;;;13.73;100.00;95730.09;1042909;28;20487;-69
2021/10/04 00:19:40;;;;;;;2.60;2.10;;;;;;;13.69;100.00;95724.63;1038369;28;20628;-69
2021/10/04 00:20:11;;;;;;;2.28;2.05;;;;;;;13.72;100.00;95729.31;1026511;28;20076;-69
2021/10/04 00:20:47;;;;;;;2.10;1.90;;;;;;;13.75;100.00;95727.94;1030381;28;20293;-70
2021/10/04 00:21:17;;;;;;;2.17;1.98;;;;;;;13.76;100.00;95725.06;1030007;28;20026;-67
2021/10/04 00:21:48;;;;;;;2.40;2.00;;;;;;;13.75;100.00;95726.13;1031954;28;20424;-69
2021/10/04 00:22:18;;;;;;;3.00;2.40;;;;;;;13.77;100.00;95721.34;1027100;28;20023;-70
2021/10/04 00:22:49;;;;;;;2.75;2.17;;;;;;;13.71;100.00;95709.28;1030621;28;20030;-69
2021/10/04 00:23:20;;;;;;;2.40;2.20;;;;;;;13.78;100.00;95714.19;1026937;28;20430;-70
2021/10/04 00:23:51;;;;;;;3.38;2.60;;;;;;;13.80;100.00;95715.50;1019147;28;20299;-69
2021/10/04 00:24:21;;;;;;;2.95;2.20;;;;;;;13.79;100.00;95724.50;1026342;28;20619;-68
2021/10/04 00:24:52;;;;;;;3.38;2.40;;;;;;;13.78;100.00;95716.84;1026992;28;20039;-69
2021/10/04 00:25:22;;;;;;;3.35;2.33;;;;;;;13.76;100.00;95716.34;1026660;28;20110;-68
2021/10/04 00:25:53;;;;;;;2.72;2.47;;;;;;;13.77;100.00;95720.56;1030725;28;20034;-69
2021/10/04 00:26:23;;;;;;;2.33;2.13;;;;;;;13.72;100.00;95718.00;1026038;28;20035;-69
2021/10/04 00:26:53;;;;;;;3.63;2.10;;;;;;;13.69;100.00;95708.78;1026709;28;20031;-69
2021/10/04 00:27:24;;;;;;;2.42;2.10;;;;;;;13.72;100.00;95723.28;1026644;28;20030;-70
2021/10/04 00:27:54;;;;;;;2.33;2.13;;;;;;;13.74;100.00;95719.25;1026551;28;20022;-69
2021/10/04 00:28:25;;;;;;;2.97;2.10;;;;;;;13.73;100.00;95720.34;1026630;28;20027;-69
2021/10/04 00:28:55;;;;;;;2.47;2.28;;;;;;;13.69;100.00;95711.44;1022663;28;20034;-69
2021/10/04 00:29:26;;;;;;;2.78;2.20;;;;;;;13.74;100.00;95719.25;1026134;28;20018;-68
2021/10/04 00:29:57;;;;;;;3.75;2.42;;;;;;;13.74;100.00;95721.91;1022567;29;20034;-69
2021/10/04 00:30:30;;;;;;;5.07;2.85;;;;;;;13.73;100.00;95720.34;1022861;29;20031;-69
2021/10/04 00:31:01;;;;;;;4.68;2.38;;;;;;;13.71;100.00;95719.03;1021076;28;20367;-69
2021/10/04 00:31:31;;;;;;;6.72;2.13;;;;;;;13.65;100.00;95716.47;1023336;28;20282;-69
2021/10/04 00:32:02;;;;;;;3.20;2.28;;;;;;;13.67;100.00;95716.19;1030722;28;20113;-69
2021/10/04 00:32:33;;;;;;;2.50;2.15;;;;;;;13.65;100.00;95716.47;1026783;28;20656;-67
2021/10/04 00:33:04;;;;;;;8.45;2.28;;;;;;;13.70;100.00;95720.91;1032580;28;20500;-69
2021/10/04 00:33:34;;;;;;;5.63;2.17;;;;;;;13.64;100.00;95714.13;1034505;28;20261;-68
2021/10/04 00:34:04;;;;;;;4.07;2.55;;;;;;;13.70;100.00;95726.19;1026708;28;20138;-68
2021/10/04 00:34:35;;;;;;;3.95;2.40;;;;;;;13.70;100.00;95726.19;1023447;28;20035;-69
2021/10/04 00:35:06;;;;;;;2.40;2.10;;;;;;;13.61;100.00;95717.31;1022509;29;20035;-69
2021/10/04 00:35:36;;;;;;;3.55;2.85;;;;;;;13.72;100.00;95724.06;1022602;29;20039;-70
2021/10/04 00:36:07;;;;;;;2.75;2.08;;;;;;;13.72;100.00;95724.06;1020938;29;20925;-69
2021/10/04 00:36:37;;;;;;;4.78;2.53;;;;;;;13.68;100.00;95725.66;1025943;28;20097;-69
2021/10/04 00:37:08;;;;;;;5.20;2.60;;;;;;;13.67;100.00;95726.72;1030949;28;20026;-68
2021/10/04 00:37:38;;;;;;;2.22;2.00;;;;;;;13.66;100.00;95731.22;1030791;28;20022;-69
2021/10/04 00:38:09;;;;;;;3.88;2.17;;;;;;;13.63;100.00;95717.81;1020594;29;20075;-69
2021/10/04 00:38:39;;;;;;;3.55;2.22;;;;;;;13.64;100.00;95722.03;1022402;28;20029;-69
2021/10/04 00:39:09;;;;;;;3.47;2.08;;;;;;;13.66;100.00;95725.97;1026650;28;20070;-70
2021/10/04 00:39:43;;;;;;;3.38;2.10;;;;;;;13.67;100.00;95726.72;1029458;28;20026;-70
2021/10/04 00:40:16;;;;;;;3.03;2.10;;;;;;;13.62;100.00;95718.91;1038349;28;20479;-70
2021/10/04 00:40:46;;;;;;;2.53;2.30;;;;;;;13.69;100.00;95729.88;1035844;28;20060;-69
2021/10/04 00:41:17;;;;;;;3.08;2.25;;;;;;;13.70;100.00;95728.81;1026441;28;20031;-68
2021/10/04 00:41:50;;;;;;;3.13;2.28;;;;;;;13.62;100.00;95708.34;1027844;28;20049;-70
2021/10/04 00:42:21;;;;;;;5.13;2.13;;;;;;;13.70;100.00;95730.66;1022772;28;20127;-69
2021/10/04 00:42:52;;;;;;;3.67;1.88;;;;;;;13.64;100.00;95722.03;1023560;28;20027;-69
2021/10/04 00:43:23;;;;;;;7.10;2.50;;;;;;;13.68;100.00;95720.38;1018433;29;20023;-69
2021/10/04 00:43:53;;;;;;;2.33;2.13;;;;;;;13.72;100.00;95724.06;1022871;28;20046;-69
2021/10/04 00:44:23;;;;;;;3.75;2.42;;;;;;;13.72;100.00;95724.06;1023424;28;20031;-69
2021/10/04 00:44:55;;;;;;;4.35;2.50;;;;;;;13.70;100.00;95726.19;1026812;28;20027;-69
2021/10/04 00:45:25;;;;;;;2.70;2.22;;;;;;;13.64;100.00;95716.75;1027041;28;20604;-69
2021/10/04 00:45:56;;;;;;;6.20;2.42;;;;;;;13.70;100.00;95715.63;1026571;28;20022;-69
2021/10/04 00:46:26;;;;;;;13.60;2.55;;;;;;;13.70;100.00;95726.19;1022454;29;20027;-70
2021/10/04 00:46:57;;;;;;;32.67;4.53;;;;;;;13.58;100.00;95702.88;1022968;29;20047;-67
2021/10/04 00:47:27;;;;;;;17.75;3.72;;;;;;;13.71;100.00;95711.13;1028546;28;20408;-69
2021/10/04 00:47:58;;;;;;;19.30;4.20;;;;;;;13.67;100.00;95710.91;1027141;28;20398;-66
2021/10/04 00:48:28;;;;;;;14.90;3.65;;;;;;;13.72;100.00;95707.44;1023322;28;20155;-66
2021/10/04 00:48:59;;;;;;;9.80;2.80;;;;;;;13.64;100.00;95703.56;1022789;28;20024;-70
2021/10/04 00:49:33;;;;;;;12.07;3.25;;;;;;;13.73;100.00;95715.06;1022541;28;20062;-67
2021/10/04 00:50:03;;;;;;;3.13;2.35;;;;;;;13.67;100.00;95711.69;1022948;28;20027;-69
2021/10/04 00:50:34;;;;;;;4.63;2.55;;;;;;;13.72;100.00;95712.72;1019264;29;20335;-69
2021/10/04 00:51:05;;;;;;;3.67;2.30;;;;;;;13.68;100.00;95713.28;1022286;28;20789;-69
2021/10/04 00:51:36;;;;;;;2.92;2.55;;;;;;;13.64;100.00;95703.56;1026869;28;20019;-69
2021/10/04 00:52:06;;;;;;;2.65;2.45;;;;;;;13.65;100.00;95703.28;1023245;28;20350;-69
2021/10/04 00:52:37;;;;;;;4.68;2.70;;;;;;;13.71;100.00;95714.56;1026584;28;20540;-69
2021/10/04 00:53:07;;;;;;;3.78;2.78;;;;;;;13.70;100.00;95715.63;1019074;28;20054;-68
2021/10/04 00:53:37;;;;;;;3.28;2.70;;;;;;;13.71;100.00;95711.13;1027453;28;20138;-67
2021/10/04 00:54:08;;;;;;;3.95;3.35;;;;;;;13.73;100.00;95706.38;1034448;28;20044;-69
2021/10/04 00:54:38;;;;;;;4.25;3.15;;;;;;;13.72;100.00;95716.13;1030832;28;20085;-69
2021/10/04 00:55:09;;;;;;;5.88;2.97;;;;;;;13.66;100.00;95696.94;1026599;28;20504;-67
2021/10/04 00:55:39;;;;;;;4.15;3.30;;;;;;;13.74;100.00;95711.34;1022658;29;20393;-69
2021/10/04 00:56:10;;;;;;;8.63;3.35;;;;;;;13.66;100.00;95698.81;1022136;29;20027;-67
2021/10/04 00:56:41;;;;;;;3.30;2.97;;;;;;;13.76;100.00;95711.09;1018927;29;20074;-69
2021/10/04 00:57:11;;;;;;;4.68;3.30;;;;;;;13.76;100.00;95709.22;1018906;29;20114;-69
2021/10/04 00:57:41;;;;;;;4.43;3.05;;;;;;;13.77;100.00;95716.06;1020738;28;20067;-69
2021/10/04 00:58:12;;;;;;;5.65;2.67;;;;;;;13.76;100.00;95709.22;1023642;28;20031;-68
2021/10/04 00:58:43;;;;;;;3.08;2.35;;;;;;;13.76;100.00;95708.44;1030255;28;20586;-69
2021/10/04 00:59:13;;;;;;;3.55;2.78;;;;;;;13.69;100.00;95703.50;1022740;29;20038;-67
2021/10/04 00:59:44;;;;;;;2.80;2.50;;;;;;;13.75;100.00;95715.56;1022480;28;20453;-66
2021/10/04 01:00:17;;;;;;;4.72;3.20;;;;;;;13.75;100.00;95717.41;1018612;29;20108;-69
2021/10/04 01:00:50;;;;;;;3.85;2.92;;;;;;;13.74;100.00;95711.34;1026981;28;20062;-69
2021/10/04 01:01:20;;;;;;;5.68;3.15;;;;;;;13.74;100.00;95719.25;1021936;28;20274;-69
2021/10/04 01:01:51;;;;;;;2.92;2.47;;;;;;;13.72;100.00;95708.22;1023912;28;20309;-69
2021/10/04 01:02:21;;;;;;;3.15;2.53;;;;;;;13.77;100.00;95721.34;1028280;28;20030;-69
2021/10/04 01:02:52;;;;;;;3.03;2.70;;;;;;;13.79;100.00;95719.22;1018747;29;20075;-69
2021/10/04 01:03:22;;;;;;;4.00;2.67;;;;;;;13.78;100.00;95722.13;1014971;29;20106;-69
2021/10/04 01:03:53;;;;;;;5.40;2.67;;;;;;;13.74;100.00;95719.25;1021809;28;20057;-69
2021/10/04 01:04:26;;;;;;;2.40;2.20;;;;;;;13.68;100.00;95715.91;1018783;29;20027;-69
2021/10/04 01:04:57;;;;;;;3.17;2.65;;;;;;;13.76;100.00;95719.78;1023474;28;20045;-69
2021/10/04 01:05:27;;;;;;;3.25;2.40;;;;;;;13.81;100.00;95730.25;1025391;28;20061;-69
2021/10/04 01:06:00;;;;;;;2.85;2.17;;;;;;;13.80;100.00;95735.81;1026848;28;20022;-68
2021/10/04 01:06:31;;;;;;;2.83;2.22;;;;;;;13.78;100.00;95730.84;1026667;28;20035;-69
2021/10/04 01:07:01;;;;;;;5.15;2.35;;;;;;;13.79;100.00;95740.31;1022492;28;20278;-68
2021/10/04 01:07:32;;;;;;;2.25;2.00;;;;;;;13.77;100.00;95737.16;1023014;28;20035;-69
2021/10/04 01:08:02;;;;;;;3.42;1.85;;;;;;;13.72;100.00;95724.06;1022933;28;20031;-68
2021/10/04 01:08:33;;;;;;;2.47;2.10;;;;;;;13.78;100.00;95730.84;1027162;28;20031;-69
2021/10/04 01:09:03;;;;;;;2.35;2.00;;;;;;;13.80;100.00;95731.31;1030380;28;20045;-70
2021/10/04 01:09:34;;;;;;;3.70;2.25;;;;;;;13.73;100.00;95728.25;1026707;28;20523;-69
2021/10/04 01:10:05;;;;;;;3.17;2.30;;;;;;;13.76;100.00;95719.00;1018738;29;20054;-69
2021/10/04 01:10:35;;;;;;;2.28;2.08;;;;;;;13.74;100.00;95719.25;1022847;28;20047;-66
2021/10/04 01:11:07;;;;;;;2.53;2.30;;;;;;;13.73;100.00;95722.97;1026911;28;20504;-65
2021/10/04 01:11:37;;;;;;;2.97;1.98;;;;;;;13.76;100.00;95729.53;1022891;29;20913;-64
2021/10/04 01:12:07;;;;;;;4.57;2.30;;;;;;;13.76;100.00;95727.69;1023179;28;20275;-69
2021/10/04 01:12:39;;;;;;;4.85;2.35;;;;;;;13.71;100.00;95722.47;1027166;28;20073;-68
2021/10/04 01:13:09;;;;;;;3.55;2.55;;;;;;;13.70;100.00;95725.38;1019347;29;20035;-69
2021/10/04 01:13:40;;;;;;;3.08;2.40;;;;;;;13.63;100.00;95720.47;1022991;29;20267;-69
2021/10/04 01:14:10;;;;;;;2.50;2.30;;;;;;;13.66;100.00;95730.44;1024188;28;20034;-69
2021/10/04 01:14:41;;;;;;;3.20;2.50;;;;;;;13.65;100.00;95732.31;1027346;28;20105;-68
2021/10/04 01:15:11;;;;;;;3.63;2.50;;;;;;;13.58;100.00;95729.22;1031548;28;20694;-69
2021/10/04 01:15:42;;;;;;;2.40;2.20;;;;;;;13.58;100.00;95733.69;1023927;28;20537;-69
2021/10/04 01:16:13;;;;;;;2.90;2.42;;;;;;;13.51;100.00;95728.75;1027138;28;20096;-68
2021/10/04 01:16:46;;;;;;;4.53;2.45;;;;;;;13.54;100.00;95736.09;1027367;28;20027;-69
2021/10/04 01:17:17;;;;;;;4.47;2.70;;;;;;;13.53;100.00;95733.75;1028269;28;20814;-66
2021/10/04 01:17:50;;;;;;;4.25;2.35;;;;;;;13.51;100.00;95734.03;1027317;28;20030;-69
2021/10/04 01:18:20;;;;;;;2.88;2.60;;;;;;;13.52;100.00;95738.25;1027290;28;20029;-71
2021/10/04 01:18:51;;;;;;;3.00;2.15;;;;;;;13.44;100.00;95728.31;1025841;28;20273;-68
2021/10/04 01:19:21;;;;;;;2.63;2.03;;;;;;;13.44;100.00;95728.31;1027020;28;20019;-68
2021/10/04 01:19:52;;;;;;;4.05;2.55;;;;;;;13.50;100.00;95735.09;1023525;29;20059;-69
2021/10/04 01:20:24;;;;;;;2.45;2.08;;;;;;;13.46;100.00;95730.69;1027387;28;20081;-69
2021/10/04 01:20:55;;;;;;;3.53;2.30;;;;;;;13.46;100.00;95736.72;1023350;29;20038;-69
2021/10/04 01:21:25;;;;;;;4.88;2.55;;;;;;;13.44;100.00;95734.38;1021980;28;20278;-68
2021/10/04 01:21:56;;;;;;;2.40;2.17;;;;;;;13.39;100.00;95731.00;1023806;28;20085;-69
2021/10/04 01:22:26;;;;;;;2.30;2.03;;;;;;;13.35;100.00;95722.09;1027206;28;20019;-69
2021/10/04 01:22:57;;;;;;;2.65;2.45;;;;;;;13.40;100.00;95736.00;1031227;28;20030;-67
2021/10/04 01:23:28;;;;;;;2.78;2.30;;;;;;;13.38;100.00;95738.16;1031400;28;20022;-68
2021/10/04 01:23:58;;;;;;;4.00;2.28;;;;;;;13.30;100.00;95725.56;1028393;28;20030;-69
2021/10/04 01:24:29;;;;;;;2.42;2.00;;;;;;;13.36;100.00;95732.34;1027348;28;20477;-67
2021/10/04 01:24:59;;;;;;;2.40;2.20;;;;;;;13.34;100.00;95737.09;1031185;28;20458;-69
2021/10/04 01:25:30;;;;;;;2.15;1.95;;;;;;;13.34;100.00;95739.75;1027321;28;20366;-69
2021/10/04 01:26:00;;;;;;;2.53;2.25;;;;;;;13.29;100.00;95731.91;1023512;28;20476;-67
2021/10/04 01:26:30;;;;;;;104.80;10.82;;;;;;;13.30;100.00;95732.69;1019641;28;20028;-66
2021/10/04 01:27:04;;;;;;;47.40;7.75;;;;;;;13.26;100.00;95732.47;1019305;29;20046;-67
2021/10/04 01:27:34;;;;;;;58.10;6.78;;;;;;;13.33;100.00;95740.81;1021901;29;20619;-66
2021/10/04 01:28:05;;;;;;;30.38;4.68;;;;;;;13.29;100.00;95731.91;1023315;29;20263;-67
2021/10/04 01:28:38;;;;;;;32.25;3.95;;;;;;;13.29;100.00;95734.53;1024835;28;20023;-67
2021/10/04 01:29:09;;;;;;;14.02;2.67;;;;;;;13.28;100.00;95737.44;1030859;28;20026;-69
2021/10/04 01:29:39;;;;;;;6.22;3.00;;;;;;;13.27;100.00;95738.50;1023267;29;20270;-69
2021/10/04 01:30:10;;;;;;;5.20;2.50;;;;;;;13.32;100.00;95747.16;1023485;29;20740;-69
2021/10/04 01:30:40;;;;;;;10.00;2.83;;;;;;;13.32;100.00;95749.78;1023425;28;20541;-69
2021/10/04 01:31:11;;;;;;;15.85;3.78;;;;;;;13.32;100.00;95747.16;1026625;28;20047;-67
2021/10/04 01:31:41;;;;;;;11.60;2.83;;;;;;;13.26;100.00;95737.72;1019437;29;20036;-68
2021/10/04 01:32:12;;;;;;;9.45;2.70;;;;;;;13.29;100.00;95742.44;1023405;28;20027;-66
2021/10/04 01:32:42;;;;;;;7.50;2.30;;;;;;;13.36;100.00;95750.81;1025981;28;20393;-67
2021/10/04 01:33:13;;;;;;;11.77;2.55;;;;;;;13.37;100.00;95744.47;1027053;28;20017;-66
2021/10/04 01:33:43;;;;;;;8.63;3.33;;;;;;;13.33;100.00;95738.19;1031353;28;20077;-66
2021/10/04 01:34:14;;;;;;;30.75;3.90;;;;;;;13.37;100.00;95739.19;1027341;28;20031;-69
2021/10/04 01:34:44;;;;;;;11.73;3.08;;;;;;;13.39;100.00;95739.69;1021431;29;20177;-69
2021/10/04 01:35:15;;;;;;;2.80;2.20;;;;;;;13.39;100.00;95736.28;1023236;29;20035;-69
2021/10/04 01:35:45;;;;;;;6.70;2.67;;;;;;;13.36;100.00;95736.84;1019199;28;20034;-66
2021/10/04 01:36:16;;;;;;;18.55;3.75;;;;;;;13.40;100.00;95748.41;1022980;29;20019;-68
2021/10/04 01:36:46;;;;;;;15.80;3.17;;;;;;;13.40;100.00;95746.53;1015626;29;20028;-69
2021/10/04 01:37:19;;;;;;;5.80;3.10;;;;;;;13.36;100.00;95736.84;1019343;29;20115;-69
2021/10/04 01:37:50;;;;;;;5.78;2.35;;;;;;;13.35;100.00;95733.44;1023186;28;20083;-68
2021/10/04 01:38:21;;;;;;;7.32;2.47;;;;;;;13.41;100.00;95742.84;1019020;29;20334;-69
2021/10/04 01:38:52;;;;;;;2.78;2.40;;;;;;;13.46;100.00;95742.00;1027280;28;20085;-69
2021/10/04 01:39:23;;;;;;;2.45;2.22;;;;;;;13.47;100.00;95742.78;1028983;28;20104;-69
2021/10/04 01:39:53;;;;;;;2.90;2.20;;;;;;;13.47;100.00;95742.78;1021478;29;20842;-68
2021/10/04 01:40:24;;;;;;;3.70;2.15;;;;;;;13.47;100.00;95745.41;1023411;29;20382;-69
2021/10/04 01:40:54;;;;;;;2.70;2.20;;;;;;;13.46;100.00;95746.50;1027759;28;20091;-69
2021/10/04 01:41:25;;;;;;;2.42;2.20;;;;;;;13.47;100.00;95748.06;1030349;28;20038;-66
2021/10/04 01:41:55;;;;;;;2.70;1.95;;;;;;;13.48;100.00;95746.97;1039525;28;20021;-69
2021/10/04 01:42:26;;;;;;;2.92;2.50;;;;;;;13.48;100.00;95739.06;1031283;28;20096;-68
2021/10/04 01:42:56;;;;;;;2.70;2.42;;;;;;;13.49;100.00;95740.66;1027321;28;20800;-70
2021/10/04 01:43:27;;;;;;;2.40;2.20;;;;;;;13.48;100.00;95739.06;1030717;28;20038;-69
2021/10/04 01:43:57;;;;;;;2.45;2.20;;;;;;;13.51;100.00;95741.94;1025204;28;20031;-65
2021/10/04 01:44:28;;;;;;;2.42;2.20;;;;;;;13.51;100.00;95743.78;1031069;28;20030;-68
2021/10/04 01:44:58;;;;;;;2.20;2.00;;;;;;;13.49;100.00;95738.81;1025757;28;20031;-68
2021/10/04 01:45:29;;;;;;;2.33;2.10;;;;;;;13.35;100.00;95716.84;1026921;28;20500;-68
2021/10/04 01:45:59;;;;;;;2.75;1.98;;;;;;;13.50;100.00;95737.75;1018695;29;20026;-68
2021/10/04 01:46:30;;;;;;;2.25;2.05;;;;;;;13.51;100.00;95727.97;1023041;29;20031;-67
2021/10/04 01:47:00;;;;;;;2.45;2.20;;;;;;;13.50;100.00;95731.69;1023116;28;20027;-69
2021/10/04 01:47:30;;;;;;;3.00;2.10;;;;;;;13.52;100.00;95735.63;1023253;28;20034;-69
2021/10/04 01:48:01;;;;;;;3.30;2.30;;;;;;;13.54;100.00;95732.69;1029568;28;20077;-68
2021/10/04 01:48:31;;;;;;;3.08;2.38;;;;;;;13.51;100.00;95722.69;1031080;28;20030;-68
2021/10/04 01:49:02;;;;;;;3.85;2.55;;;;;;;13.55;100.00;95734.28;1023165;28;20035;-69
2021/10/04 01:49:33;;;;;;;3.85;2.72;;;;;;;13.55;100.00;95731.63;1023178;28;20039;-69
2021/10/04 01:50:04;;;;;;;2.63;2.42;;;;;;;13.54;100.00;95733.47;1016989;29;20379;-69
2021/10/04 01:50:35;;;;;;;3.40;3.00;;;;;;;13.50;100.00;95726.41;1015545;29;20104;-69
2021/10/04 01:51:06;;;;;;;2.90;2.60;;;;;;;13.55;100.00;95731.63;1019104;29;20274;-68
2021/10/04 01:51:36;;;;;;;3.55;2.70;;;;;;;13.56;100.00;95727.94;1030134;28;20066;-69
2021/10/04 01:52:07;;;;;;;2.42;2.22;;;;;;;13.53;100.00;95731.91;1030979;28;20030;-69
2021/10/04 01:52:40;;;;;;;3.53;2.40;;;;;;;13.50;100.00;95729.84;1027077;28;20032;-66
2021/10/04 01:53:10;;;;;;;2.70;2.40;;;;;;;13.52;100.00;95725.06;1027499;28;20033;-69
2021/10/04 01:53:43;;;;;;;3.92;2.42;;;;;;;13.57;100.00;95734.75;1030813;28;20293;-69
2021/10/04 01:54:14;;;;;;;3.00;2.55;;;;;;;13.56;100.00;95736.63;1019075;29;20119;-69
2021/10/04 01:54:44;;;;;;;2.97;2.60;;;;;;;13.57;100.00;95738.19;1019196;29;20272;-69
2021/10/04 01:55:15;;;;;;;2.97;2.17;;;;;;;13.59;100.00;95735.28;1019741;28;20023;-69
2021/10/04 01:55:45;;;;;;;2.63;1.98;;;;;;;13.53;100.00;95726.63;1023483;28;20027;-69
2021/10/04 01:56:16;;;;;;;2.80;2.40;;;;;;;13.58;100.00;95733.69;1023570;28;20023;-69
2021/10/04 01:56:46;;;;;;;2.72;2.33;;;;;;;13.58;100.00;95733.69;1022966;29;20096;-66
2021/10/04 01:57:17;;;;;;;2.58;2.38;;;;;;;13.50;100.00;95724.56;1023123;28;20027;-66
2021/10/04 01:57:47;;;;;;;2.88;2.20;;;;;;;13.49;100.00;95724.84;1023142;28;20023;-67
2021/10/04 01:58:18;;;;;;;2.40;2.20;;;;;;;13.54;100.00;95733.47;1018547;29;20044;-67
2021/10/04 01:58:48;;;;;;;4.15;3.20;;;;;;;13.55;100.00;95734.28;1015959;29;20047;-69
2021/10/04 01:59:18;;;;;;;3.22;2.70;;;;;;;13.53;100.00;95731.91;1019212;28;20418;-68
2021/10/04 01:59:52;;;;;;;2.33;2.13;;;;;;;13.47;100.00;95732.25;1020823;28;20068;-69
2021/10/04 02:00:22;;;;;;;2.47;2.22;;;;;;;13.48;100.00;95728.53;1020931;28;20296;-69
2021/10/04 02:00:53;;;;;;;3.53;2.63;;;;;;;13.52;100.00;95745.38;1022587;29;20485;-69
2021/10/04 02:01:23;;;;;;;2.92;2.25;;;;;;;13.51;100.00;95744.56;1022266;29;20041;-66
2021/10/04 02:01:54;;;;;;;3.92;2.58;;;;;;;13.51;100.00;95743.78;1023049;28;20027;-69
2021/10/04 02:02:24;;;;;;;3.15;2.83;;;;;;;13.52;100.00;95746.16;1022882;29;20465;-69
2021/10/04 02:02:55;;;;;;;4.22;2.50;;;;;;;13.47;100.00;95733.03;1027150;28;20027;-69
2021/10/04 02:03:26;;;;;;;5.43;2.20;;;;;;;13.54;100.00;95746.66;1025679;28;20023;-68
2021/10/04 02:03:57;;;;;;;3.83;2.40;;;;;;;13.51;100.00;95744.56;1026920;28;20017;-68
2021/10/04 02:04:27;;;;;;;2.53;2.33;;;;;;;13.50;100.00;95745.66;1025848;28;20265;-69
2021/10/04 02:04:58;;;;;;;6.35;2.60;;;;;;;13.54;100.00;95743.22;1026874;28;20023;-66
2021/10/04 02:05:29;;;;;;;3.08;2.58;;;;;;;13.47;100.00;95735.66;1022818;29;20015;-68
2021/10/04 02:05:59;;;;;;;3.55;2.88;;;;;;;13.47;100.00;95737.50;1015181;29;20435;-69
2021/10/04 02:06:30;;;;;;;4.47;3.22;;;;;;;13.53;100.00;95741.66;1023168;28;20023;-69
2021/10/04 02:07:01;;;;;;;3.47;3.17;;;;;;;13.52;100.00;95740.13;1026983;28;20580;-69
2021/10/04 02:07:31;;;;;;;5.70;2.97;;;;;;;13.53;100.00;95741.66;1027346;28;20011;-69
2021/10/04 02:08:01;;;;;;;3.88;2.72;;;;;;;13.53;100.00;95741.66;1030969;28;20094;-69
2021/10/04 02:08:32;;;;;;;3.45;3.15;;;;;;;13.52;100.00;95740.88;1031449;28;20484;-68
2021/10/04 02:09:06;;;;;;;4.35;3.28;;;;;;;13.46;100.00;95730.69;1033118;28;20022;-66
2021/10/04 02:09:36;;;;;;;5.00;3.75;;;;;;;13.49;100.00;95738.03;1026960;28;20430;-69
2021/10/04 02:10:08;;;;;;;4.35;3.75;;;;;;;13.50;100.00;95743.00;1019567;29;20279;-69
2021/10/04 02:10:40;;;;;;;3.30;3.00;;;;;;;13.50;100.00;95747.50;1018611;29;20032;-68
2021/10/04 02:11:10;;;;;;;3.60;3.00;;;;;;;13.44;100.00;95737.00;1016008;28;20662;-67
2021/10/04 02:11:41;;;;;;;3.38;3.00;;;;;;;13.51;100.00;95741.94;1022801;28;20251;-69
2021/10/04 02:12:15;;;;;;;3.50;3.05;;;;;;;13.52;100.00;95735.63;1022752;29;20019;-68
2021/10/04 02:12:45;;;;;;;4.88;3.17;;;;;;;13.49;100.00;95735.41;1023488;28;20274;-69
2021/10/04 02:13:16;;;;;;;3.67;2.97;;;;;;;13.49;100.00;95736.19;1023562;28;20290;-66
2021/10/04 02:13:46;;;;;;;3.60;3.15;;;;;;;13.54;100.00;95744.00;1019932;28;20162;-66
2021/10/04 02:14:17;;;;;;;3.97;3.00;;;;;;;13.53;100.00;95741.66;1022835;29;20024;-64
2021/10/04 02:14:47;;;;;;;3.13;2.83;;;;;;;13.47;100.00;95732.25;1022903;28;20058;-68
2021/10/04 02:15:18;;;;;;;5.75;3.42;;;;;;;13.55;100.00;95736.91;1026350;28;20358;-69
2021/10/04 02:15:48;;;;;;;2.97;2.60;;;;;;;13.53;100.00;95737.19;1024215;28;20172;-69
2021/10/04 02:16:19;;;;;;;3.13;2.78;;;;;;;13.55;100.00;95735.06;1022810;29;20110;-68
2021/10/04 02:16:49;;;;;;;2.30;2.10;;;;;;;13.56;100.00;95730.56;1023052;28;20042;-69
2021/10/04 02:17:19;;;;;;;2.63;2.42;;;;;;;13.53;100.00;95729.28;1019962;28;20038;-69
2021/10/04 02:17:51;;;;;;;2.78;2.47;;;;;;;13.54;100.00;95730.84;1015191;29;20036;-69
2021/10/04 02:18:21;;;;;;;3.47;2.33;;;;;;;13.54;100.00;95732.69;1015176;29;20449;-69
2021/10/04 02:18:52;;;;;;;3.78;2.47;;;;;;;13.57;100.00;95732.13;1020684;28;20271;-69
2021/10/04 02:19:23;;;;;;;2.58;2.22;;;;;;;13.53;100.00;95733.75;1022841;28;20043;-69
2021/10/04 02:19:53;;;;;;;3.58;2.28;;;;;;;13.54;100.00;95728.19;1027060;28;20806;-69
2021/10/04 02:20:25;;;;;;;2.70;2.20;;;;;;;13.51;100.00;95722.69;1026810;28;20037;-68
2021/10/04 02:20:55;;;;;;;2.50;2.30;;;;;;;13.54;100.00;95722.16;1025470;28;20057;-69
2021/10/04 02:21:26;;;;;;;2.80;2.38;;;;;;;13.49;100.00;95720.34;1018021;29;20034;-68
2021/10/04 02:22:00;;;;;;;2.55;2.35;;;;;;;13.52;100.00;95729.56;1018986;29;20038;-69
2021/10/04 02:22:30;;;;;;;3.80;2.38;;;;;;;13.54;100.00;95735.31;1025463;28;20046;-69
2021/10/04 02:23:05;;;;;;;2.63;2.20;;;;;;;13.49;100.00;95725.63;1027214;28;20467;-68